createdAt,value
2023-03-15T00:02:35.454Z,73.00
2023-03-15T00:06:02.050Z,72.94
2023-03-15T00:09:28.514Z,75.18
2023-03-15T00:12:42.686Z,73.97
2023-03-15T00:16:00.106Z,73.84
2023-03-15T00:19:08.716Z,73.65
2023-03-15T00:22:27.297Z,72.65
2023-03-15T00:25:50.496Z,73.12
2023-03-15T00:28:58.893Z,73.80
2023-03-15T00:32:07.031Z,71.91
2023-03-15T00:35:18.800Z,72.29
2023-03-15T00:38:27.048Z,73.78
2023-03-15T00:41:41.779Z,71.64
2023-03-15T00:44:56.230Z,70.68
2023-03-15T00:48:19.457Z,71.81
2023-03-15T00:51:45.587Z,73.20
2023-03-15T00:54:54.523Z,72.61
2023-03-15T00:58:03.185Z,72.15
2023-03-15T01:01:19.674Z,71.96
2023-03-15T01:04:36.446Z,72.07
2023-03-15T01:07:45.694Z,71.89
2023-03-15T01:10:54.511Z,72.93
2023-03-15T01:14:20.036Z,73.23
2023-03-15T01:17:28.915Z,72.84
2023-03-15T01:20:35.032Z,73.38
2023-03-15T01:23:42.823Z,74.29
2023-03-15T01:26:55.707Z,72.16
2023-03-15T01:30:21.388Z,71.05
2023-03-15T01:33:40.419Z,71.68
2023-03-15T01:36:53.979Z,70.53
2023-03-15T01:40:06.534Z,70.26
2023-03-15T01:43:18.163Z,70.73
2023-03-15T01:46:43.878Z,69.12
2023-03-15T01:49:55.634Z,69.79
2023-03-15T01:53:03.667Z,69.73
2023-03-15T01:56:20.752Z,72.46
2023-03-15T01:59:41.764Z,71.47
2023-03-15T02:02:50.836Z,71.64
2023-03-15T02:06:18.084Z,72.08
2023-03-15T02:09:32.218Z,70.53
2023-03-15T02:12:42.888Z,68.53
2023-03-15T02:15:48.454Z,68.07
2023-03-15T02:19:00.152Z,67.85
2023-03-15T02:22:24.156Z,67.35
2023-03-15T02:25:46.672Z,66.43
2023-03-15T02:29:04.346Z,66.85
2023-03-15T02:32:10.562Z,67.27
2023-03-15T02:35:36.723Z,65.87
2023-03-15T02:39:03.585Z,67.09
2023-03-15T02:42:14.938Z,66.97
2023-03-15T02:45:33.037Z,66.32
2023-03-15T02:48:59.504Z,67.13
2023-03-15T02:52:18.396Z,66.46
2023-03-15T02:55:42.979Z,67.98
2023-03-15T02:58:57.629Z,67.61
2023-03-15T03:02:22.378Z,67.63
2023-03-15T03:05:30.383Z,68.16
2023-03-15T03:08:51.485Z,67.58
2023-03-15T03:12:10.323Z,68.42
2023-03-15T03:15:28.690Z,68.02
2023-03-15T03:18:53.345Z,67.26
2023-03-15T03:22:13.260Z,66.06
2023-03-15T03:25:33.028Z,65.54
2023-03-15T03:28:51.346Z,64.46
2023-03-15T03:32:00.949Z,63.90
2023-03-15T03:35:26.765Z,63.12
2023-03-15T03:38:54.084Z,63.05
2023-03-15T03:42:12.623Z,62.80
2023-03-15T03:45:38.558Z,62.97
2023-03-15T03:48:57.368Z,62.40
2023-03-15T03:52:23.031Z,61.86
2023-03-15T03:55:49.204Z,62.09
2023-03-15T03:59:14.814Z,60.98
2023-03-15T04:02:42.755Z,61.42
2023-03-15T04:06:05.752Z,61.44
2023-03-15T04:09:31.653Z,61.20
2023-03-15T04:12:40.269Z,61.21
2023-03-15T04:15:57.823Z,60.93
2023-03-15T04:19:12.888Z,61.25
2023-03-15T04:22:38.583Z,60.94
2023-03-15T04:26:06.996Z,61.00
2023-03-15T04:29:32.940Z,61.13
2023-03-15T04:33:03.484Z,60.59
2023-03-15T04:36:31.907Z,61.49
2023-03-15T04:40:07.204Z,61.65
2023-03-15T04:43:38.509Z,64.09
2023-03-15T04:47:07.059Z,64.56
2023-03-15T04:50:32.813Z,65.88
2023-03-15T04:53:58.594Z,67.16
2023-03-15T04:57:26.870Z,65.43
2023-03-15T05:00:41.617Z,67.29
2023-03-15T05:04:07.590Z,67.40
2023-03-15T05:07:34.371Z,65.71
2023-03-15T05:11:11.935Z,64.63
2023-03-15T05:14:46.326Z,65.18
2023-03-15T05:18:12.790Z,64.09
2023-03-15T05:21:41.238Z,63.22
2023-03-15T05:25:05.621Z,62.79
2023-03-15T05:28:37.218Z,62.67
2023-03-15T05:32:04.608Z,63.88
2023-03-15T05:35:39.318Z,63.24
2023-03-15T05:39:08.173Z,63.35
2023-03-15T05:42:34.138Z,62.53
2023-03-15T05:46:00.724Z,61.78
2023-03-15T05:49:27.353Z,61.67
2023-03-15T05:53:05.020Z,61.41
2023-03-15T05:56:34.514Z,61.10
2023-03-15T06:00:08.411Z,61.08
2023-03-15T06:03:19.879Z,61.07
2023-03-15T06:06:45.841Z,62.28
2023-03-15T06:10:05.903Z,61.62
2023-03-15T06:13:32.390Z,61.36
2023-03-15T06:16:58.746Z,60.50
2023-03-15T06:20:24.468Z,60.34
2023-03-15T06:23:50.692Z,61.13
2023-03-15T06:27:16.382Z,60.85
2023-03-15T06:30:42.446Z,61.47
2023-03-15T06:34:09.967Z,62.24
2023-03-15T06:37:37.109Z,61.90
2023-03-15T06:41:05.090Z,62.78
2023-03-15T06:44:30.802Z,63.22
2023-03-15T06:47:56.911Z,64.18
2023-03-15T06:51:24.273Z,65.85
2023-03-15T06:54:49.984Z,65.89
2023-03-15T06:58:15.940Z,64.43
2023-03-15T07:01:42.659Z,63.96
2023-03-15T07:05:09.507Z,64.14
2023-03-15T07:08:35.367Z,64.91
2023-03-15T07:12:01.423Z,63.95
2023-03-15T07:15:27.209Z,63.65
2023-03-15T07:18:55.519Z,65.17
2023-03-15T07:22:22.491Z,65.76
2023-03-15T07:25:55.096Z,65.77
2023-03-15T07:29:21.230Z,66.78
2023-03-15T07:32:47.911Z,65.39
2023-03-15T07:36:14.640Z,64.56
2023-03-15T07:39:41.356Z,64.93
2023-03-15T07:43:07.083Z,63.76
2023-03-15T07:46:32.815Z,65.31
2023-03-15T07:49:58.609Z,64.16
2023-03-15T07:53:24.391Z,64.75
2023-03-15T07:56:50.377Z,64.36
2023-03-15T08:00:17.184Z,63.06
2023-03-15T08:03:42.956Z,64.06
2023-03-15T08:07:09.026Z,63.59
2023-03-15T08:10:35.672Z,63.67
2023-03-15T08:14:01.508Z,62.46
2023-03-15T08:18:01.013Z,61.44
2023-03-15T08:21:26.806Z,60.53
2023-03-15T08:24:53.359Z,59.90
2023-03-15T08:28:19.410Z,60.17
2023-03-15T08:31:45.369Z,60.04
2023-03-15T08:35:15.464Z,63.03
2023-03-15T08:39:02.775Z,62.17
2023-03-15T08:42:28.528Z,60.53
2023-03-15T08:46:01.136Z,59.70
2023-03-15T08:49:27.458Z,62.51
2023-03-15T08:52:53.288Z,61.70
2023-03-15T08:56:22.287Z,60.59
2023-03-15T08:59:47.946Z,59.43
2023-03-15T09:03:16.087Z,60.29
2023-03-15T09:06:42.295Z,62.67
2023-03-15T09:09:48.277Z,62.52
2023-03-15T09:13:13.981Z,58.90
2023-03-15T09:16:31.034Z,60.78
2023-03-15T09:19:47.616Z,62.06
2023-03-15T09:23:00.865Z,62.74
2023-03-15T09:26:06.737Z,60.41
2023-03-15T09:29:23.256Z,56.26
2023-03-15T09:32:36.236Z,58.13
2023-03-15T09:35:57.166Z,58.76
2023-03-15T09:39:08.486Z,60.46
2023-03-15T09:42:32.601Z,61.28
2023-03-15T09:46:04.063Z,62.12
2023-03-15T09:49:15.370Z,60.55
2023-03-15T09:53:03.399Z,59.32
2023-03-15T09:56:19.921Z,60.11
2023-03-15T09:59:47.995Z,61.74
2023-03-15T10:03:18.343Z,59.53
2023-03-15T10:06:37.769Z,58.26
2023-03-15T10:09:58.489Z,60.41
2023-03-15T10:13:33.114Z,59.82
2023-03-15T10:16:50.113Z,59.20
2023-03-15T10:20:19.148Z,58.61
2023-03-15T10:23:42.869Z,59.74
2023-03-15T10:27:00.264Z,60.19
2023-03-15T10:30:14.392Z,61.23
2023-03-15T10:33:27.528Z,62.37
2023-03-15T10:36:38.953Z,59.93
2023-03-15T10:39:57.133Z,57.81
2023-03-15T10:43:23.737Z,60.07
2023-03-15T10:46:39.519Z,60.01
2023-03-15T10:50:05.737Z,60.75
2023-03-15T10:53:31.488Z,59.23
2023-03-15T10:56:43.291Z,58.08
2023-03-15T10:59:58.809Z,57.40
2023-03-15T11:03:08.201Z,58.34
2023-03-15T11:06:22.869Z,56.03
2023-03-15T11:09:52.721Z,52.79
2023-03-15T11:13:22.700Z,53.05
2023-03-15T11:16:34.650Z,52.39
2023-03-15T11:19:47.629Z,52.00
2023-03-15T11:22:55.300Z,52.68
2023-03-15T11:26:31.926Z,52.89
2023-03-15T11:29:52.974Z,51.57
2023-03-15T11:33:03.586Z,50.75
2023-03-15T11:36:31.969Z,51.83
2023-03-15T11:39:40.341Z,53.89
2023-03-15T11:42:50.593Z,54.86
2023-03-15T11:45:59.036Z,55.06
2023-03-15T11:49:32.594Z,54.60
2023-03-15T11:52:51.186Z,55.82
2023-03-15T11:56:24.865Z,55.80
2023-03-15T11:59:37.021Z,53.42
2023-03-15T12:02:54.713Z,51.63
2023-03-15T12:06:05.771Z,52.18
2023-03-15T12:09:49.117Z,50.46
2023-03-15T12:13:00.546Z,50.20
2023-03-15T12:16:09.260Z,50.39
2023-03-15T12:19:18.234Z,48.71
2023-03-15T12:22:34.369Z,46.56
2023-03-15T12:25:54.356Z,47.89
2023-03-15T12:29:29.587Z,50.59
2023-03-15T12:32:57.070Z,52.16
2023-03-15T12:36:06.160Z,52.30
2023-03-15T12:39:41.694Z,53.69
2023-03-15T12:43:04.523Z,54.10
2023-03-15T12:46:30.340Z,53.36
2023-03-15T12:49:46.810Z,53.45
2023-03-15T12:53:00.784Z,50.58
2023-03-15T12:56:34.361Z,51.02
2023-03-15T13:00:01.648Z,51.53
2023-03-15T13:03:11.980Z,48.89
2023-03-15T13:06:32.717Z,51.65
2023-03-15T13:10:11.487Z,54.44
2023-03-15T13:14:03.101Z,57.60
2023-03-15T13:17:19.759Z,58.88
2023-03-15T13:20:49.527Z,60.01
2023-03-15T13:24:21.774Z,61.21
2023-03-15T13:27:52.428Z,61.80
2023-03-15T13:31:14.554Z,61.16
2023-03-15T13:34:24.517Z,57.82
2023-03-15T13:37:41.989Z,57.56
2023-03-15T13:41:17.753Z,58.16
2023-03-15T13:44:43.673Z,60.28
2023-03-15T13:48:13.405Z,61.22
2023-03-15T13:51:40.234Z,62.64
2023-03-15T13:54:46.184Z,60.74
2023-03-15T13:58:12.536Z,59.67
2023-03-15T14:01:43.054Z,63.13
2023-03-15T14:05:11.440Z,62.10
2023-03-15T14:08:31.915Z,59.62
2023-03-15T14:12:06.062Z,59.81
2023-03-15T14:15:24.988Z,61.57
2023-03-15T14:18:55.181Z,62.37
2023-03-15T14:22:21.109Z,60.31
2023-03-15T14:25:37.471Z,58.50
2023-03-15T14:29:07.625Z,60.44
2023-03-15T14:32:34.111Z,61.90
2023-03-15T14:35:44.678Z,62.00
2023-03-15T14:38:55.349Z,62.54
2023-03-15T14:42:21.216Z,60.19
2023-03-15T14:45:29.481Z,57.94
2023-03-15T14:48:55.281Z,59.52
2023-03-15T14:52:21.145Z,60.23
2023-03-15T14:55:46.905Z,60.97
2023-03-15T14:59:14.247Z,61.87
2023-03-15T15:02:40.327Z,62.02
2023-03-15T15:06:07.929Z,61.97
2023-03-15T15:09:34.038Z,61.98
2023-03-15T15:12:39.725Z,58.62
2023-03-15T15:16:05.928Z,58.22
2023-03-15T15:19:31.834Z,59.70
2023-03-15T15:22:48.578Z,60.06
2023-03-15T15:26:18.405Z,59.11
2023-03-15T15:29:44.976Z,59.14
2023-03-15T15:33:11.642Z,58.74
2023-03-15T15:36:41.572Z,57.38
2023-03-15T15:40:00.676Z,56.90
2023-03-15T15:43:26.589Z,57.29
2023-03-15T15:46:42.423Z,55.37
2023-03-15T15:49:48.085Z,54.76
2023-03-15T15:53:16.760Z,54.76
2023-03-15T15:56:36.747Z,55.36
2023-03-15T15:59:42.338Z,54.40
2023-03-15T16:03:14.874Z,54.24
2023-03-15T16:06:31.388Z,54.79
2023-03-15T16:09:59.088Z,54.70
2023-03-15T16:13:14.726Z,54.92
2023-03-15T16:16:34.257Z,55.18
2023-03-15T16:19:58.580Z,54.87
2023-03-15T16:23:19.589Z,54.88
2023-03-15T16:26:37.668Z,54.75
2023-03-15T16:29:47.828Z,54.43
2023-03-15T16:33:16.449Z,54.61
2023-03-15T16:36:43.642Z,55.03
2023-03-15T16:40:14.745Z,55.81
2023-03-15T16:43:40.532Z,56.31
2023-03-15T16:46:55.993Z,56.48
2023-03-15T16:50:21.801Z,57.08
2023-03-15T16:53:47.454Z,57.14
2023-03-15T16:57:15.374Z,57.47
2023-03-15T17:00:44.361Z,57.26
2023-03-15T17:04:00.041Z,57.29
2023-03-15T17:07:28.911Z,57.39
2023-03-15T17:10:54.761Z,57.72
2023-03-15T17:14:23.699Z,57.99
2023-03-15T17:18:37.023Z,58.44
2023-03-15T17:21:39.796Z,58.61
2023-03-15T17:24:55.698Z,59.01
2023-03-15T17:28:22.829Z,59.27
2023-03-15T17:31:52.632Z,59.65
2023-03-15T17:35:19.823Z,59.97
2023-03-15T17:38:42.565Z,60.39
2023-03-15T17:42:10.976Z,60.72
2023-03-15T17:45:37.138Z,61.09
2023-03-15T17:49:04.858Z,61.59
2023-03-15T17:52:31.213Z,61.90
2023-03-15T17:55:55.504Z,62.03
2023-03-15T17:59:13.231Z,62.13
2023-03-15T18:02:46.210Z,63.98
2023-03-15T18:06:09.754Z,73.63
2023-03-15T18:09:29.864Z,74.91
2023-03-15T18:12:55.944Z,71.55
2023-03-15T18:16:21.783Z,68.51
2023-03-15T18:19:38.501Z,64.00
2023-03-15T18:22:54.249Z,60.59
2023-03-15T18:26:21.673Z,56.41
2023-03-15T18:29:40.233Z,56.11
2023-03-15T18:33:06.136Z,57.74
2023-03-15T18:36:52.032Z,61.08
2023-03-15T18:40:18.888Z,58.67
2023-03-15T18:43:49.920Z,59.26
2023-03-15T18:47:08.032Z,59.75
2023-03-15T18:50:21.463Z,58.48
2023-03-15T18:53:47.408Z,58.59
2023-03-15T18:57:02.964Z,58.78
2023-03-15T19:00:29.986Z,59.18
2023-03-15T19:03:55.589Z,62.67
2023-03-15T19:07:22.276Z,70.25
2023-03-15T19:10:49.467Z,72.37
2023-03-15T19:13:58.655Z,71.03
2023-03-15T19:17:23.677Z,68.06
2023-03-15T19:20:47.647Z,65.87
2023-03-15T19:24:15.377Z,62.04
2023-03-15T19:27:40.214Z,58.29
2023-03-15T19:31:00.028Z,56.94
2023-03-15T19:34:30.639Z,58.08
2023-03-15T19:37:57.187Z,58.07
2023-03-15T19:41:23.020Z,57.36
2023-03-15T19:44:49.478Z,59.35
2023-03-15T19:48:11.456Z,58.65
2023-03-15T19:51:20.048Z,58.61
2023-03-15T19:54:31.012Z,58.96
2023-03-15T19:57:48.165Z,59.37
2023-03-15T20:01:16.044Z,59.81
2023-03-15T20:04:25.088Z,60.29
2023-03-15T20:07:33.095Z,60.77
2023-03-15T20:10:45.351Z,61.31
2023-03-15T20:14:11.217Z,61.99
2023-03-15T20:17:37.437Z,63.49
2023-03-15T20:21:04.219Z,72.97
2023-03-15T20:24:12.497Z,75.50
2023-03-15T20:27:39.641Z,73.47
2023-03-15T20:30:58.788Z,70.88
2023-03-15T20:34:11.263Z,68.16
2023-03-15T20:37:37.605Z,65.80
2023-03-15T20:40:54.638Z,63.47
2023-03-15T20:44:21.464Z,61.16
2023-03-15T20:47:41.932Z,59.43
2023-03-15T20:51:10.642Z,57.02
2023-03-15T20:54:37.966Z,58.76
2023-03-15T20:58:04.969Z,59.75
2023-03-15T21:01:32.058Z,61.31
2023-03-15T21:04:57.662Z,61.79
2023-03-15T21:08:17.899Z,61.45
2023-03-15T21:11:47.463Z,63.33
2023-03-15T21:15:17.974Z,72.63
2023-03-15T21:18:53.798Z,72.91
2023-03-15T21:22:19.589Z,69.58
2023-03-15T21:25:45.313Z,66.41
2023-03-15T21:28:59.842Z,64.27
2023-03-15T21:32:08.424Z,62.63
2023-03-15T21:35:14.011Z,60.70
2023-03-15T21:38:32.312Z,59.49
2023-03-15T21:41:50.794Z,56.52
2023-03-15T21:44:56.345Z,57.29
2023-03-15T21:48:11.847Z,59.05
2023-03-15T21:51:22.460Z,60.38
2023-03-15T21:54:28.941Z,60.98
2023-03-15T21:57:34.805Z,61.07
2023-03-15T22:00:58.101Z,64.57
2023-03-15T22:04:06.787Z,72.40
2023-03-15T22:07:14.886Z,70.74
2023-03-15T22:10:40.750Z,69.22
2023-03-15T22:13:53.819Z,65.71
2023-03-15T22:17:13.426Z,64.56
2023-03-15T22:20:19.205Z,63.75
2023-03-15T22:23:24.848Z,62.42
2023-03-15T22:26:43.039Z,61.06
2023-03-15T22:29:53.311Z,60.00
2023-03-15T22:32:59.359Z,57.40
2023-03-15T22:36:17.144Z,56.29
2023-03-15T22:39:27.853Z,56.47
2023-03-15T22:42:46.908Z,57.07
2023-03-15T22:46:12.981Z,59.22
2023-03-15T22:49:18.485Z,65.53
2023-03-15T22:52:29.855Z,65.41
2023-03-15T22:55:37.790Z,65.00
2023-03-15T22:58:55.611Z,63.78
2023-03-15T23:02:12.077Z,61.42
2023-03-15T23:05:21.386Z,60.44
2023-03-15T23:08:26.822Z,60.78
2023-03-15T23:11:35.425Z,59.05
2023-03-15T23:14:52.142Z,57.22
2023-03-15T23:18:01.891Z,57.73
2023-03-15T23:21:11.204Z,61.19
2023-03-15T23:24:19.847Z,65.99
2023-03-15T23:27:26.193Z,64.33
2023-03-15T23:30:36.104Z,62.99
2023-03-15T23:33:47.366Z,61.40
2023-03-15T23:36:55.269Z,59.11
2023-03-15T23:40:09.495Z,56.62
2023-03-15T23:43:18.754Z,55.78
2023-03-15T23:46:36.179Z,60.83
2023-03-15T23:49:43.683Z,67.28
2023-03-15T23:52:52.542Z,67.80
2023-03-15T23:56:01.412Z,65.45
2023-03-15T23:59:14.604Z,63.88
